Time;durP1;ratioP1;P1;durP2;ratioP2;P2;SDS_P1;SDS_P2;PMS_P1;PMS_P2;Temp;Humidity;BMP_temperature;BMP_pressure;BME280_temperature;BME280_humidity;BME280_pressure;Samples;Min_cycle;Max_cycle;Signal;HPM_P1;HPM_P2
2023/07/01 00:00:41;;;;;;;10.45;5.53;;;23.60;65.80;;;;;;5051815;28;20491;-41
2023/07/01 00:03:09;;;;;;;9.20;5.88;;;23.60;65.80;;;;;;5050876;28;20033;-43
2023/07/01 00:05:35;;;;;;;10.45;5.72;;;23.60;65.80;;;;;;5051314;28;20574;-45
2023/07/01 00:08:01;;;;;;;8.45;5.90;;;23.60;65.80;;;;;;5051552;28;20515;-44
2023/07/01 00:10:27;;;;;;;9.00;5.63;;;23.60;65.80;;;;;;5051748;28;20025;-43
2023/07/01 00:12:52;;;;;;;7.82;5.10;;;23.60;65.80;;;;;;5051282;28;20046;-44
2023/07/01 00:15:18;;;;;;;10.10;5.75;;;23.60;65.80;;;;;;5050602;28;20048;-41
2023/07/01 00:17:44;;;;;;;8.75;5.47;;;23.60;65.80;;;;;;5051963;28;20080;-43
2023/07/01 00:20:11;;;;;;;9.10;5.50;;;23.60;65.80;;;;;;5051357;28;20069;-41
2023/07/01 00:22:37;;;;;;;8.07;5.00;;;23.60;65.70;;;;;;5051312;28;20054;-44
2023/07/01 00:25:03;;;;;;;8.20;5.25;;;23.60;65.90;;;;;;5048105;28;20400;-41
2023/07/01 00:27:29;;;;;;;8.50;5.25;;;23.60;65.80;;;;;;5050886;28;20534;-41
2023/07/01 00:29:55;;;;;;;8.23;5.07;;;23.60;66.10;;;;;;5050086;28;20028;-41
2023/07/01 00:32:20;;;;;;;7.40;5.10;;;23.60;65.80;;;;;;5049903;28;20047;-41
2023/07/01 00:34:47;;;;;;;7.85;5.03;;;23.60;65.80;;;;;;5050438;28;20028;-42
2023/07/01 00:37:13;;;;;;;7.97;4.85;;;23.60;65.90;;;;;;5049590;28;20500;-41
2023/07/01 00:39:38;;;;;;;7.43;4.88;;;23.60;65.70;;;;;;5051034;28;20036;-41
2023/07/01 00:42:05;;;;;;;8.30;4.78;;;23.50;65.70;;;;;;5049859;28;20072;-41
2023/07/01 00:44:30;;;;;;;10.07;5.38;;;23.60;65.80;;;;;;5050444;28;20025;-41
2023/07/01 00:46:56;;;;;;;8.48;5.00;;;23.50;65.90;;;;;;5050373;28;20116;-41
2023/07/01 00:49:22;;;;;;;9.27;4.68;;;23.60;65.90;;;;;;5049950;28;20033;-41
2023/07/01 00:51:48;;;;;;;7.82;5.30;;;23.60;65.80;;;;;;5049763;28;20025;-41
2023/07/01 00:54:14;;;;;;;8.93;4.90;;;23.60;65.80;;;;;;5048998;28;20404;-41
2023/07/01 00:56:40;;;;;;;8.20;5.20;;;23.60;65.70;;;;;;5049512;28;20485;-44
2023/07/01 00:59:06;;;;;;;8.18;4.72;;;23.60;65.70;;;;;;5050480;28;20087;-41
2023/07/01 01:01:36;;;;;;;6.95;4.65;;;23.60;65.90;;;;;;5050656;28;20546;-42
2023/07/01 01:04:16;;;;;;;8.75;4.75;;;23.60;66.60;;;;;;5050059;28;20057;-42
2023/07/01 01:06:52;;;;;;;7.75;4.47;;;23.60;65.70;;;;;;5049460;28;20029;-43
2023/07/01 01:09:26;;;;;;;6.50;4.35;;;23.60;65.70;;;;;;5047352;28;20024;-41
2023/07/01 01:11:54;;;;;;;6.18;4.28;;;23.60;65.70;;;;;;5050633;28;20029;-41
2023/07/01 01:14:21;;;;;;;8.25;4.63;;;23.60;65.50;;;;;;5049656;28;20056;-43
2023/07/01 01:16:49;;;;;;;6.72;4.50;;;23.60;65.80;;;;;;5033112;28;20038;-47
2023/07/01 01:19:39;;;;;;;8.57;4.72;;;23.60;65.60;;;;;;5050399;28;20120;-43
2023/07/01 01:22:19;;;;;;;6.28;4.05;;;23.60;65.50;;;;;;5049332;28;20431;-44
2023/07/01 01:24:51;;;;;;;7.22;4.60;;;23.60;65.60;;;;;;5049895;28;20150;-42
2023/07/01 01:27:22;;;;;;;7.57;4.20;;;23.60;65.70;;;;;;5048744;28;20083;-43
2023/07/01 01:29:49;;;;;;;5.97;4.15;;;23.60;65.70;;;;;;5050618;28;20025;-45
2023/07/01 01:32:15;;;;;;;6.50;4.28;;;23.60;65.50;;;;;;5050071;28;20100;-48
2023/07/01 01:34:41;;;;;;;6.85;4.60;;;23.60;65.50;;;;;;5050054;28;20125;-46
2023/07/01 01:37:32;;;;;;;6.18;4.13;;;23.60;65.60;;;;;;5048074;28;20029;-44
2023/07/01 01:40:09;;;;;;;6.60;4.35;;;23.60;65.60;;;;;;5050039;28;20041;-47
2023/07/01 01:42:39;;;;;;;6.03;4.05;;;23.60;65.60;;;;;;5050082;28;20405;-42
2023/07/01 01:45:07;;;;;;;8.90;4.50;;;23.50;65.50;;;;;;5049294;28;21202;-46
2023/07/01 01:47:35;;;;;;;7.38;4.40;;;23.50;65.50;;;;;;5049834;28;20391;-44
2023/07/01 01:50:04;;;;;;;6.75;4.28;;;23.50;65.50;;;;;;5048186;28;20104;-46
2023/07/01 01:52:33;;;;;;;6.20;4.30;;;23.50;65.60;;;;;;5048654;28;20104;-42
2023/07/01 01:55:00;;;;;;;6.50;3.78;;;23.50;65.60;;;;;;5049690;28;20109;-45
2023/07/01 01:57:26;;;;;;;7.07;4.25;;;23.50;65.60;;;;;;5049742;28;20029;-43
2023/07/01 01:59:52;;;;;;;6.70;4.30;;;23.50;65.60;;;;;;5048473;28;20082;-45
2023/07/01 02:02:18;;;;;;;5.90;3.90;;;23.50;66.10;;;;;;5048179;28;20040;-46
2023/07/01 02:04:44;;;;;;;6.20;4.07;;;23.50;65.70;;;;;;5048828;28;20025;-42
2023/07/01 02:07:10;;;;;;;7.18;4.30;;;23.50;65.60;;;;;;5046821;28;20020;-42
2023/07/01 02:09:36;;;;;;;6.45;3.80;;;23.50;65.60;;;;;;5047439;28;20036;-41
2023/07/01 02:12:04;;;;;;;6.50;4.05;;;23.50;65.80;;;;;;5048434;28;20446;-43
2023/07/01 02:14:31;;;;;;;5.55;3.60;;;23.50;65.50;;;;;;5047668;28;20136;-43
2023/07/01 02:16:57;;;;;;;5.47;3.88;;;23.50;65.80;;;;;;5031834;28;20033;-41
2023/07/01 02:19:23;;;;;;;6.45;3.90;;;23.50;65.60;;;;;;5048442;28;20033;-44
2023/07/01 02:21:48;;;;;;;6.10;3.67;;;23.50;65.40;;;;;;5047990;28;20063;-44
2023/07/01 02:24:14;;;;;;;6.75;4.10;;;23.50;65.60;;;;;;5049061;28;20029;-44
2023/07/01 02:26:40;;;;;;;5.20;3.33;;;23.50;65.60;;;;;;5049098;28;20447;-41
2023/07/01 02:29:08;;;;;;;4.85;3.40;;;23.50;65.60;;;;;;5049273;28;20078;-41
2023/07/01 02:31:34;;;;;;;6.15;3.63;;;23.50;65.60;;;;;;5049103;28;20017;-44
2023/07/01 02:34:01;;;;;;;5.38;3.45;;;23.50;65.60;;;;;;5047728;28;20025;-44
2023/07/01 02:36:27;;;;;;;6.50;3.67;;;23.50;65.60;;;;;;5031398;28;20496;-44
2023/07/01 02:38:53;;;;;;;7.18;3.58;;;23.50;66.10;;;;;;5049365;28;20036;-42
2023/07/01 02:41:19;;;;;;;5.25;3.65;;;23.50;65.60;;;;;;5049092;28;20537;-43
2023/07/01 02:43:44;;;;;;;5.30;3.85;;;23.50;65.40;;;;;;5048765;28;20025;-43
2023/07/01 02:46:10;;;;;;;6.70;4.07;;;23.50;65.60;;;;;;5047906;28;20063;-45
2023/07/01 02:48:36;;;;;;;4.85;3.30;;;23.50;65.50;;;;;;5049379;28;20685;-41
2023/07/01 02:51:02;;;;;;;6.47;3.80;;;23.50;65.40;;;;;;5053513;28;20079;-41
2023/07/01 02:53:28;;;;;;;5.18;3.33;;;23.50;65.40;;;;;;5051321;28;20029;-41
2023/07/01 02:55:54;;;;;;;4.97;3.20;;;23.50;65.50;;;;;;5052651;28;20108;-43
2023/07/01 02:58:22;;;;;;;6.25;3.55;;;23.50;65.30;;;;;;5053478;28;20202;-42
2023/07/01 03:00:47;;;;;;;4.97;3.35;;;23.50;65.30;;;;;;5052935;28;20086;-41
2023/07/01 03:03:13;;;;;;;5.88;3.55;;;23.50;65.40;;;;;;5052866;28;20033;-43
2023/07/01 03:05:39;;;;;;;8.13;3.72;;;23.50;65.90;;;;;;5052562;28;20029;-41
2023/07/01 03:08:06;;;;;;;4.30;3.28;;;23.50;65.30;;;;;;5052844;28;20025;-44
2023/07/01 03:10:32;;;;;;;4.35;3.20;;;23.50;65.30;;;;;;5052761;28;20028;-42
2023/07/01 03:12:58;;;;;;;5.45;3.53;;;23.50;65.40;;;;;;5052387;28;20025;-41
2023/07/01 03:15:25;;;;;;;5.93;3.60;;;23.50;65.30;;;;;;5052639;28;20032;-42
2023/07/01 03:17:52;;;;;;;5.75;3.70;;;23.50;65.40;;;;;;5052632;28;20562;-41
2023/07/01 03:20:24;;;;;;;6.10;3.20;;;23.40;65.40;;;;;;5053033;28;20025;-41
2023/07/01 03:22:53;;;;;;;4.15;3.25;;;23.50;65.40;;;;;;5048567;28;20037;-41
2023/07/01 03:25:20;;;;;;;6.32;3.63;;;23.40;65.30;;;;;;5050581;28;20060;-41
2023/07/01 03:27:47;;;;;;;5.30;3.50;;;23.50;65.40;;;;;;5051657;28;20468;-41
2023/07/01 03:30:15;;;;;;;4.90;3.40;;;23.50;65.40;;;;;;5051197;28;20131;-41
2023/07/01 03:32:43;;;;;;;5.68;3.80;;;23.50;65.30;;;;;;5052140;28;20021;-41
2023/07/01 03:35:13;;;;;;;4.38;3.05;;;23.50;65.30;;;;;;5052242;28;20033;-41
2023/07/01 03:37:41;;;;;;;5.30;3.17;;;23.50;65.40;;;;;;5052405;28;20423;-44
2023/07/01 03:40:10;;;;;;;7.38;3.55;;;23.50;65.40;;;;;;5052519;28;20024;-43
2023/07/01 03:42:40;;;;;;;5.05;3.35;;;23.40;65.40;;;;;;5048724;28;20032;-42
2023/07/01 03:45:07;;;;;;;5.90;3.20;;;23.50;65.50;;;;;;5050855;28;20439;-43
2023/07/01 03:47:35;;;;;;;4.95;3.35;;;23.40;65.40;;;;;;5052024;28;20029;-41
2023/07/01 03:50:00;;;;;;;5.72;3.40;;;23.40;65.40;;;;;;5051345;28;20125;-44
2023/07/01 03:52:26;;;;;;;5.18;3.33;;;23.50;65.40;;;;;;5051617;28;20108;-49
2023/07/01 03:54:52;;;;;;;5.03;3.13;;;23.40;65.30;;;;;;5051946;28;20092;-42
2023/07/01 03:57:18;;;;;;;5.63;3.13;;;23.50;65.40;;;;;;5051641;28;20444;-43
2023/07/01 03:59:43;;;;;;;5.05;3.20;;;23.50;65.30;;;;;;5051809;28;20028;-42
2023/07/01 04:02:10;;;;;;;5.60;3.40;;;23.50;65.40;;;;;;5052046;28;20116;-41
2023/07/01 04:04:36;;;;;;;5.63;3.58;;;23.50;65.30;;;;;;5050970;28;20041;-41
2023/07/01 04:07:05;;;;;;;4.78;3.00;;;23.40;65.30;;;;;;5051774;28;20457;-40
2023/07/01 04:09:31;;;;;;;4.47;3.25;;;23.40;65.30;;;;;;5051548;28;20112;-41
2023/07/01 04:11:57;;;;;;;5.70;3.40;;;23.40;65.30;;;;;;5051805;28;20443;-42
2023/07/01 04:14:23;;;;;;;5.55;3.53;;;23.50;65.30;;;;;;5051096;28;20045;-42
2023/07/01 04:16:50;;;;;;;5.40;3.25;;;23.50;65.30;;;;;;5051256;28;20036;-41
2023/07/01 04:19:16;;;;;;;5.35;3.42;;;23.50;65.20;;;;;;5051807;28;20025;-41
2023/07/01 04:21:41;;;;;;;5.28;3.30;;;23.50;65.20;;;;;;5051373;28;20037;-41
2023/07/01 04:24:07;;;;;;;5.07;3.20;;;23.50;65.20;;;;;;5051033;28;20061;-43
2023/07/01 04:26:36;;;;;;;6.13;3.30;;;23.50;65.20;;;;;;5051253;28;20040;-41
2023/07/01 04:29:02;;;;;;;6.00;3.38;;;23.50;65.10;;;;;;5051339;28;20024;-41
2023/07/01 04:31:28;;;;;;;5.10;3.13;;;23.50;65.10;;;;;;5051382;28;20087;-41
2023/07/01 04:33:55;;;;;;;6.93;3.42;;;23.50;65.20;;;;;;5050996;28;20512;-41
2023/07/01 04:36:22;;;;;;;6.25;3.70;;;23.50;65.10;;;;;;5053252;28;20059;-41
2023/07/01 04:38:47;;;;;;;4.93;3.50;;;23.50;65.10;;;;;;5053227;28;20032;-42
2023/07/01 04:41:13;;;;;;;7.00;3.85;;;23.50;65.10;;;;;;5053177;28;20021;-41
2023/07/01 04:43:39;;;;;;;5.30;3.33;;;23.50;65.10;;;;;;5052766;28;20029;-42
2023/07/01 04:46:05;;;;;;;5.75;3.22;;;23.50;65.10;;;;;;5053263;28;20021;-40
2023/07/01 04:48:31;;;;;;;5.72;3.60;;;23.40;65.10;;;;;;5052872;28;20148;-41
2023/07/01 04:50:57;;;;;;;7.13;3.95;;;23.40;65.10;;;;;;5052961;28;20025;-41
2023/07/01 04:53:23;;;;;;;4.32;3.20;;;23.50;65.10;;;;;;5052566;28;20480;-45
2023/07/01 04:55:49;;;;;;;6.40;3.60;;;23.40;65.10;;;;;;5052874;28;20028;-42
2023/07/01 04:58:15;;;;;;;6.45;3.70;;;23.40;65.10;;;;;;5052835;28;20037;-42
2023/07/01 05:00:40;;;;;;;5.18;3.67;;;23.40;65.00;;;;;;5052810;28;20492;-41
2023/07/01 05:03:06;;;;;;;5.15;3.28;;;23.40;65.00;;;;;;5052410;28;20041;-41
2023/07/01 05:05:32;;;;;;;5.88;3.70;;;23.40;65.10;;;;;;5052630;28;20488;-41
2023/07/01 05:07:58;;;;;;;5.93;3.60;;;23.40;65.10;;;;;;5052651;28;20115;-41
2023/07/01 05:10:24;;;;;;;5.82;3.50;;;23.40;65.00;;;;;;5052591;28;20100;-41
2023/07/01 05:12:50;;;;;;;7.28;4.07;;;23.40;65.10;;;;;;5051792;28;20108;-41
2023/07/01 05:15:16;;;;;;;7.60;3.78;;;23.40;65.10;;;;;;5052265;28;20063;-41
2023/07/01 05:17:43;;;;;;;6.22;3.97;;;23.40;65.10;;;;;;5052468;28;20100;-41
2023/07/01 05:20:10;;;;;;;5.80;4.07;;;23.40;65.00;;;;;;5052426;28;20025;-42
2023/07/01 05:22:36;;;;;;;7.35;3.67;;;23.40;65.00;;;;;;5052377;28;20028;-41
2023/07/01 05:25:03;;;;;;;6.15;3.78;;;23.40;65.00;;;;;;5052158;28;20103;-42
2023/07/01 05:27:30;;;;;;;4.68;3.50;;;23.40;65.00;;;;;;5052327;28;20086;-41
2023/07/01 05:29:57;;;;;;;6.50;3.95;;;23.40;65.00;;;;;;5052289;28;20032;-42
2023/07/01 05:32:23;;;;;;;6.07;3.97;;;23.40;65.00;;;;;;5050954;28;20021;-41
2023/07/01 05:34:48;;;;;;;6.95;3.83;;;23.40;65.00;;;;;;5051653;28;20017;-44
2023/07/01 05:37:15;;;;;;;9.27;4.07;;;23.40;64.90;;;;;;5052325;28;20025;-44
2023/07/01 05:39:40;;;;;;;5.05;3.40;;;23.40;64.90;;;;;;5051175;28;20025;-41
2023/07/01 05:42:06;;;;;;;6.57;3.72;;;23.40;64.90;;;;;;5052100;28;20112;-43
2023/07/01 05:44:32;;;;;;;5.78;3.72;;;23.40;64.90;;;;;;5051788;28;20094;-42
2023/07/01 05:46:58;;;;;;;6.72;4.07;;;23.50;64.80;;;;;;5052166;28;20033;-42
2023/07/01 05:49:24;;;;;;;6.38;3.83;;;23.40;64.80;;;;;;5051999;28;20021;-42
2023/07/01 05:51:50;;;;;;;6.53;4.38;;;23.40;64.80;;;;;;5051977;28;20032;-43
2023/07/01 05:54:16;;;;;;;5.63;3.90;;;23.40;64.80;;;;;;5051498;28;20037;-44
2023/07/01 05:56:41;;;;;;;5.93;3.97;;;23.50;64.70;;;;;;5051719;28;20055;-42
2023/07/01 05:59:07;;;;;;;6.22;3.90;;;23.50;64.80;;;;;;5051774;28;20044;-43
2023/07/01 06:01:33;;;;;;;8.27;4.43;;;23.50;64.60;;;;;;5051848;28;20048;-41
2023/07/01 06:03:59;;;;;;;5.95;4.00;;;23.50;64.70;;;;;;5051541;28;20694;-44
2023/07/01 06:06:25;;;;;;;5.97;4.10;;;23.50;64.60;;;;;;5051614;28;20033;-47
2023/07/01 06:08:51;;;;;;;8.60;4.55;;;23.50;64.50;;;;;;5051707;28;20032;-43
2023/07/01 06:11:17;;;;;;;6.53;3.85;;;23.50;64.60;;;;;;5051613;28;20029;-43
2023/07/01 06:13:47;;;;;;;8.05;4.55;;;23.50;64.50;;;;;;5051307;28;20035;-51
2023/07/01 06:16:14;;;;;;;7.22;4.57;;;23.50;64.50;;;;;;5051551;28;20023;-49
2023/07/01 06:18:40;;;;;;;6.82;4.28;;;23.50;64.40;;;;;;5051464;28;20029;-49
2023/07/01 06:21:09;;;;;;;6.20;4.03;;;23.50;64.40;;;;;;5051809;28;20488;-49
2023/07/01 06:23:36;;;;;;;6.95;4.00;;;23.50;64.50;;;;;;5051049;28;20025;-52
2023/07/01 06:26:02;;;;;;;8.13;4.47;;;23.50;64.50;;;;;;5051401;28;20415;-46
2023/07/01 06:28:28;;;;;;;7.40;4.47;;;23.50;64.40;;;;;;5051368;28;20074;-49
2023/07/01 06:30:54;;;;;;;6.50;3.72;;;23.50;64.40;;;;;;5051538;28;20412;-47
2023/07/01 06:33:20;;;;;;;5.88;4.20;;;23.50;64.50;;;;;;5051211;28;20029;-48
2023/07/01 06:35:46;;;;;;;7.53;4.70;;;23.50;64.40;;;;;;5051261;28;20544;-45
2023/07/01 06:38:12;;;;;;;6.63;4.38;;;23.50;64.30;;;;;;5051319;28;20104;-43
2023/07/01 06:40:38;;;;;;;6.80;4.28;;;23.50;64.40;;;;;;5051197;28;20041;-44
2023/07/01 06:43:04;;;;;;;7.78;4.07;;;23.50;64.40;;;;;;5051060;28;20037;-47
2023/07/01 06:45:31;;;;;;;7.68;3.92;;;23.40;64.30;;;;;;5051035;28;20033;-44
2023/07/01 06:47:58;;;;;;;7.63;4.53;;;23.50;64.40;;;;;;5051264;28;20025;-45
2023/07/01 06:50:23;;;;;;;7.05;4.43;;;23.50;64.30;;;;;;5051280;28;20548;-47
2023/07/01 06:52:49;;;;;;;6.28;4.18;;;23.40;64.20;;;;;;5051194;28;20168;-43
2023/07/01 06:55:15;;;;;;;7.63;4.32;;;23.50;64.30;;;;;;5051339;28;20036;-44
2023/07/01 06:57:44;;;;;;;7.53;4.65;;;23.50;64.30;;;;;;5051214;28;20029;-44
2023/07/01 07:00:13;;;;;;;7.45;4.32;;;23.40;64.20;;;;;;5051224;28;20085;-41
2023/07/01 07:02:39;;;;;;;8.55;3.97;;;23.50;64.20;;;;;;5050914;28;20040;-44
2023/07/01 07:05:06;;;;;;;8.30;3.90;;;23.40;64.20;;;;;;5050773;28;20044;-42
2023/07/01 07:07:32;;;;;;;7.55;4.38;;;23.50;64.10;;;;;;5050903;28;20025;-41
2023/07/01 07:09:58;;;;;;;5.60;4.10;;;23.50;64.20;;;;;;5051008;28;20486;-41
2023/07/01 07:12:25;;;;;;;6.43;4.05;;;23.50;64.20;;;;;;5051040;28;20423;-42
2023/07/01 07:14:51;;;;;;;6.60;4.30;;;23.40;64.10;;;;;;5050753;28;20104;-41
2023/07/01 07:17:16;;;;;;;6.72;4.25;;;23.50;64.10;;;;;;5050919;28;20104;-45
2023/07/01 07:19:42;;;;;;;6.63;4.15;;;23.50;64.00;;;;;;5050857;28;20552;-45
2023/07/01 07:22:08;;;;;;;6.80;4.32;;;23.50;63.90;;;;;;5049705;28;20028;-43
2023/07/01 07:24:34;;;;;;;6.20;3.72;;;23.40;63.80;;;;;;5050590;28;20053;-43
2023/07/01 07:27:01;;;;;;;6.95;4.03;;;23.50;63.90;;;;;;5050753;28;20032;-43
2023/07/01 07:29:33;;;;;;;5.80;3.78;;;23.50;63.80;;;;;;5050810;28;20086;-45
2023/07/01 07:32:00;;;;;;;6.38;4.30;;;23.50;63.80;;;;;;5050788;28;20029;-41
2023/07/01 07:34:25;;;;;;;7.45;4.45;;;23.50;63.80;;;;;;5048827;28;20393;-41
2023/07/01 07:36:52;;;;;;;7.32;4.20;;;23.50;63.70;;;;;;5053979;28;20029;-42
2023/07/01 07:39:18;;;;;;;7.35;4.68;;;23.50;63.70;;;;;;5053940;28;20033;-43
2023/07/01 07:41:44;;;;;;;7.43;4.50;;;23.50;63.50;;;;;;5053137;28;20115;-41
2023/07/01 07:44:10;;;;;;;7.40;4.13;;;23.50;63.60;;;;;;5053928;28;20021;-42
2023/07/01 07:46:38;;;;;;;6.28;3.78;;;23.50;63.60;;;;;;5054576;28;20414;-43
2023/07/01 07:49:04;;;;;;;6.93;4.38;;;23.50;63.60;;;;;;5054200;28;20032;-41
2023/07/01 07:51:31;;;;;;;6.93;4.25;;;23.50;63.50;;;;;;5054084;28;20053;-43
2023/07/01 07:53:57;;;;;;;7.68;4.15;;;23.50;63.70;;;;;;5053833;28;20341;-41
2023/07/01 07:56:23;;;;;;;7.20;3.97;;;23.50;63.40;;;;;;5054163;28;20056;-42
2023/07/01 07:58:48;;;;;;;6.30;3.92;;;23.50;63.50;;;;;;5054063;28;20381;-41
2023/07/01 08:01:14;;;;;;;5.85;3.97;;;23.50;63.30;;;;;;5054029;28;20033;-41
2023/07/01 08:03:40;;;;;;;7.57;4.22;;;23.50;63.30;;;;;;5053433;28;20024;-46
2023/07/01 08:06:07;;;;;;;6.22;3.83;;;23.50;63.50;;;;;;5053840;28;20443;-42
2023/07/01 08:08:33;;;;;;;8.07;4.18;;;23.50;63.40;;;;;;5053765;28;20033;-42
2023/07/01 08:10:59;;;;;;;6.72;3.85;;;23.50;63.30;;;;;;5053822;28;20029;-42
2023/07/01 08:13:25;;;;;;;7.25;4.40;;;23.50;63.20;;;;;;5053377;28;20040;-42
2023/07/01 08:15:52;;;;;;;6.97;4.13;;;23.50;63.00;;;;;;5053751;28;20044;-42
2023/07/01 08:18:18;;;;;;;6.90;4.07;;;23.50;63.10;;;;;;5053600;28;20029;-42
2023/07/01 08:20:44;;;;;;;5.90;3.72;;;23.50;63.00;;;;;;5053722;28;20408;-41
2023/07/01 08:23:11;;;;;;;7.20;3.83;;;23.50;63.00;;;;;;5053336;28;20032;-41
2023/07/01 08:25:41;;;;;;;6.45;3.88;;;23.50;63.10;;;;;;5053402;28;20070;-41
2023/07/01 08:28:07;;;;;;;8.95;4.70;;;23.50;62.90;;;;;;5053682;28;20053;-44
2023/07/01 08:30:34;;;;;;;6.15;3.72;;;23.50;62.90;;;;;;5053372;28;20017;-43
2023/07/01 08:32:59;;;;;;;6.80;3.70;;;23.50;62.90;;;;;;5053213;28;20025;-44
2023/07/01 08:35:25;;;;;;;7.68;3.97;;;23.50;62.80;;;;;;5051784;28;20029;-44
2023/07/01 08:37:51;;;;;;;5.85;3.67;;;23.50;62.80;;;;;;5053335;28;20021;-46
2023/07/01 08:40:17;;;;;;;6.35;3.97;;;23.50;62.90;;;;;;5053213;28;20029;-45
2023/07/01 08:43:03;;;;;;;6.15;3.83;;;23.50;62.90;;;;;;5053142;28;20025;-44
2023/07/01 08:45:30;;;;;;;5.88;4.03;;;23.50;62.80;;;;;;5052873;28;20106;-49
2023/07/01 08:48:00;;;;;;;7.38;4.32;;;23.50;62.80;;;;;;5052126;28;20198;-43
2023/07/01 08:50:57;;;;;;;7.97;4.60;;;23.50;62.70;;;;;;5053093;28;20025;-42
2023/07/01 08:53:23;;;;;;;7.95;4.47;;;23.50;63.00;;;;;;5021808;28;20115;-41
2023/07/01 08:55:52;;;;;;;7.50;4.30;;;23.50;62.70;;;;;;5053021;28;20126;-41
2023/07/01 08:58:18;;;;;;;8.02;4.47;;;23.50;62.70;;;;;;5053194;28;20593;-47
2023/07/01 09:00:44;;;;;;;9.05;4.72;;;23.50;62.70;;;;;;5052948;28;20032;-44
2023/07/01 09:03:12;;;;;;;8.43;4.53;;;23.50;62.70;;;;;;5051173;28;20037;-44
2023/07/01 09:05:37;;;;;;;10.07;4.70;;;23.50;62.60;;;;;;5052837;28;20060;-43
2023/07/01 09:08:03;;;;;;;6.78;4.20;;;23.50;62.60;;;;;;5052688;28;20061;-44
2023/07/01 09:10:29;;;;;;;7.53;4.78;;;23.50;62.60;;;;;;5052201;28;20534;-43
2023/07/01 09:13:08;;;;;;;8.25;4.65;;;23.50;62.60;;;;;;5052633;28;20138;-45
2023/07/01 09:15:47;;;;;;;9.23;5.13;;;23.50;62.50;;;;;;5052376;28;20029;-44
2023/07/01 09:18:43;;;;;;;9.93;5.35;;;23.60;62.60;;;;;;5052697;28;20399;-41
2023/07/01 09:21:18;;;;;;;7.18;4.35;;;23.50;62.40;;;;;;5051313;28;20037;-44
2023/07/01 09:23:44;;;;;;;7.75;4.60;;;23.50;62.40;;;;;;5052129;28;20040;-44
2023/07/01 09:26:15;;;;;;;9.00;5.07;;;23.60;62.40;;;;;;5052367;28;20033;-41
2023/07/01 09:28:46;;;;;;;9.57;4.88;;;23.60;62.40;;;;;;5052346;28;20538;-42
2023/07/01 09:31:14;;;;;;;8.32;4.57;;;23.50;62.40;;;;;;5052240;28;20025;-41
2023/07/01 09:33:55;;;;;;;7.78;4.57;;;23.50;62.40;;;;;;5051790;28;20140;-42
2023/07/01 09:36:25;;;;;;;9.13;4.70;;;23.60;62.40;;;;;;5052282;28;20396;-42
2023/07/01 09:38:52;;;;;;;7.93;4.68;;;23.50;62.30;;;;;;5052270;28;20025;-41
2023/07/01 09:41:23;;;;;;;9.10;4.78;;;23.50;62.30;;;;;;5052190;28;20033;-41
2023/07/01 09:43:49;;;;;;;8.23;4.55;;;23.50;62.30;;;;;;5051662;28;20145;-43
2023/07/01 09:46:15;;;;;;;6.47;4.20;;;23.50;62.40;;;;;;5051988;28;20107;-43
2023/07/01 09:48:55;;;;;;;8.20;4.53;;;23.50;62.20;;;;;;5051912;28;20445;-43
2023/07/01 09:51:24;;;;;;;7.43;4.32;;;23.50;62.30;;;;;;5052030;28;20021;-41
2023/07/01 09:53:50;;;;;;;8.02;4.35;;;23.50;62.30;;;;;;5051659;28;20029;-42
2023/07/01 09:56:18;;;;;;;8.52;4.50;;;23.50;62.30;;;;;;5051857;28;20109;-44
2023/07/01 09:58:44;;;;;;;8.45;5.03;;;23.50;62.30;;;;;;5051585;28;20029;-43
2023/07/01 10:01:12;;;;;;;8.00;4.43;;;23.50;62.40;;;;;;5051756;28;20493;-42
2023/07/01 10:03:39;;;;;;;9.05;4.65;;;23.50;62.20;;;;;;5073126;22;20049;-56
2023/07/01 10:06:05;;;;;;;6.93;4.35;;;23.50;62.20;;;;;;5051163;28;20480;-52
2023/07/01 10:08:30;;;;;;;6.63;4.18;;;23.50;62.20;;;;;;5051604;28;20509;-56
2023/07/01 10:11:05;;;;;;;7.45;4.32;;;23.50;62.40;;;;;;5051638;28;20108;-56
2023/07/01 10:13:37;;;;;;;7.18;4.30;;;23.50;62.20;;;;;;5051096;28;20036;-57
2023/07/01 10:16:05;;;;;;;7.03;4.10;;;23.50;62.30;;;;;;5051591;28;20029;-56
2023/07/01 10:18:33;;;;;;;5.97;3.77;;;23.50;62.30;;;;;;5051596;28;20114;-57
2023/07/01 10:21:19;;;;;;;6.35;4.15;;;23.50;62.40;;;;;;5051534;28;20037;-56
2023/07/01 10:23:45;;;;;;;7.47;4.25;;;23.50;62.30;;;;;;5040572;28;20044;-56
2023/07/01 10:26:37;;;;;;;7.72;4.50;;;23.50;62.30;;;;;;5051406;28;20391;-56
2023/07/01 10:29:28;;;;;;;7.75;3.95;;;23.50;62.30;;;;;;5051325;28;20037;-54
2023/07/01 10:32:09;;;;;;;6.72;4.05;;;23.50;62.30;;;;;;5051413;28;20032;-57
2023/07/01 10:34:53;;;;;;;10.93;4.80;;;23.50;62.30;;;;;;5050735;28;20061;-56
2023/07/01 10:37:25;;;;;;;6.30;3.90;;;23.50;62.40;;;;;;5051420;28;20025;-57
2023/07/01 10:39:52;;;;;;;6.35;4.32;;;23.50;62.40;;;;;;5051388;28;20056;-57
2023/07/01 10:42:31;;;;;;;6.18;4.00;;;23.50;62.40;;;;;;5051223;28;20025;-55
2023/07/01 10:45:12;;;;;;;10.60;4.47;;;23.50;62.50;;;;;;5050907;28;20079;-56
2023/07/01 10:47:42;;;;;;;7.65;4.55;;;23.50;62.50;;;;;;5051528;28;20033;-57
2023/07/01 10:50:10;;;;;;;8.23;5.15;;;23.50;62.50;;;;;;5051349;28;20017;-55
2023/07/01 10:52:55;;;;;;;8.25;5.03;;;23.50;62.60;;;;;;5051212;28;20028;-56
2023/07/01 10:55:46;;;;;;;9.82;4.57;;;23.50;62.50;;;;;;5051000;28;20476;-57
2023/07/01 10:58:28;;;;;;;8.32;5.00;;;23.50;62.60;;;;;;5051166;28;20036;-57
2023/07/01 11:00:55;;;;;;;7.70;4.57;;;23.50;62.60;;;;;;5051094;28;20021;-55
2023/07/01 11:03:33;;;;;;;7.88;4.75;;;23.50;62.50;;;;;;5050576;28;20037;-56
2023/07/01 11:06:00;;;;;;;8.73;5.13;;;23.50;62.60;;;;;;5051160;28;20433;-57
2023/07/01 11:08:27;;;;;;;8.98;4.35;;;23.50;62.50;;;;;;5051063;28;20037;-56
2023/07/01 11:10:53;;;;;;;8.55;4.35;;;23.50;62.70;;;;;;5035985;28;20028;-56
2023/07/01 11:13:19;;;;;;;8.27;5.00;;;23.50;62.60;;;;;;5054611;28;20397;-56
2023/07/01 11:16:06;;;;;;;7.53;4.65;;;23.50;62.60;;;;;;5037115;28;20404;-56
2023/07/01 11:18:49;;;;;;;9.18;4.82;;;23.50;62.60;;;;;;5054746;28;20112;-52
2023/07/01 11:21:26;;;;;;;8.05;4.30;;;23.50;63.10;;;;;;5054834;28;20093;-56
2023/07/01 11:23:55;;;;;;;6.85;4.28;;;23.50;62.60;;;;;;5054368;28;20033;-53
2023/07/01 11:26:23;;;;;;;6.87;4.00;;;23.50;62.50;;;;;;5054615;28;20100;-56
2023/07/01 11:28:50;;;;;;;7.25;4.22;;;23.50;62.60;;;;;;5054431;28;20033;-56
2023/07/01 11:31:21;;;;;;;8.38;4.20;;;23.50;62.60;;;;;;5054608;28;20029;-50
2023/07/01 11:33:49;;;;;;;7.72;4.40;;;23.50;62.60;;;;;;5054146;28;20025;-56
2023/07/01 11:36:16;;;;;;;7.13;4.20;;;23.50;62.60;;;;;;5054521;28;20029;-52
2023/07/01 11:38:47;;;;;;;8.95;4.40;;;23.50;62.60;;;;;;5054456;28;20029;-53
2023/07/01 11:41:23;;;;;;;7.95;4.43;;;23.50;62.50;;;;;;5054662;28;20456;-56
2023/07/01 11:43:49;;;;;;;8.88;4.60;;;23.50;62.50;;;;;;5053914;28;20029;-55
2023/07/01 11:46:33;;;;;;;8.02;4.22;;;23.50;63.10;;;;;;5054271;28;20036;-50
2023/07/01 11:49:14;;;;;;;8.02;4.20;;;23.50;62.50;;;;;;5054054;28;20563;-54
2023/07/01 11:51:44;;;;;;;7.00;3.97;;;23.50;62.50;;;;;;5054191;28;20393;-51
2023/07/01 11:54:10;;;;;;;7.07;4.25;;;23.50;62.50;;;;;;5053828;28;20021;-56
2023/07/01 11:56:36;;;;;;;7.45;4.15;;;23.50;62.40;;;;;;5036186;28;20024;-52
2023/07/01 11:59:02;;;;;;;7.90;4.28;;;23.50;62.40;;;;;;5054010;28;20083;-53
2023/07/01 12:01:28;;;;;;;7.28;4.28;;;23.50;62.40;;;;;;5054081;28;20090;-52
2023/07/01 12:03:55;;;;;;;9.10;4.43;;;23.50;62.30;;;;;;5053385;28;20029;-56
2023/07/01 12:06:23;;;;;;;7.82;4.18;;;23.50;63.00;;;;;;5053842;28;20029;-52
2023/07/01 12:08:50;;;;;;;7.53;3.85;;;23.50;62.40;;;;;;5053750;28;20075;-53
2023/07/01 12:11:16;;;;;;;6.68;4.05;;;23.50;62.50;;;;;;5053833;28;20019;-56
2023/07/01 12:13:43;;;;;;;7.78;4.03;;;23.50;62.50;;;;;;5053382;28;20469;-55
2023/07/01 12:16:08;;;;;;;7.03;3.90;;;23.50;62.50;;;;;;5053702;28;20025;-50
2023/07/01 12:18:34;;;;;;;7.75;3.95;;;23.50;62.50;;;;;;5053815;28;20039;-54
2023/07/01 12:21:00;;;;;;;8.90;3.85;;;23.50;62.50;;;;;;5053434;28;20037;-56
2023/07/01 12:23:26;;;;;;;7.15;3.75;;;23.40;62.50;;;;;;5035551;28;20029;-57
2023/07/01 12:25:53;;;;;;;6.53;3.90;;;23.50;62.50;;;;;;5053415;28;20439;-57
2023/07/01 12:28:20;;;;;;;8.52;4.38;;;23.50;62.50;;;;;;5053349;28;20076;-57
2023/07/01 12:30:50;;;;;;;7.80;4.40;;;23.50;62.40;;;;;;5035522;28;20089;-56
2023/07/01 12:33:16;;;;;;;5.65;3.80;;;23.50;62.40;;;;;;5053155;28;20033;-56
2023/07/01 12:35:42;;;;;;;8.13;3.88;;;23.50;62.40;;;;;;5053197;28;20526;-56
2023/07/01 12:38:12;;;;;;;8.07;4.38;;;23.50;62.30;;;;;;5053451;28;20029;-55
2023/07/01 12:40:38;;;;;;;7.57;3.60;;;23.50;62.30;;;;;;5053524;28;20117;-56
2023/07/01 12:43:06;;;;;;;9.35;3.83;;;23.50;62.30;;;;;;5053458;28;20039;-56
2023/07/01 12:45:33;;;;;;;7.60;3.92;;;23.50;62.30;;;;;;5052979;28;20557;-54
2023/07/01 12:47:59;;;;;;;6.22;3.95;;;23.50;62.30;;;;;;5053137;28;20332;-56
2023/07/01 12:50:25;;;;;;;6.32;3.40;;;23.50;62.40;;;;;;5053373;28;20114;-57